sensor_id;sensor_type;location;lat;lon;timestamp;P1;durP1;ratioP1;P2;durP2;ratioP2
142;SDS011;63667;49.046;8.468;2022-11-20T00:01:27;33.47;;;15.67;;
142;SDS011;63667;49.046;8.468;2022-11-20T00:03:55;36.43;;;15.03;;
142;SDS011;63667;49.046;8.468;2022-11-20T00:06:23;35.97;;;15.50;;
142;SDS011;63667;49.046;8.468;2022-11-20T00:08:52;34.47;;;14.80;;
142;SDS011;63667;49.046;8.468;2022-11-20T00:11:21;36.67;;;15.10;;
142;SDS011;63667;49.046;8.468;2022-11-20T00:13:52;35.23;;;15.27;;
142;SDS011;63667;49.046;8.468;2022-11-20T00:16:21;29.83;;;14.70;;
142;SDS011;63667;49.046;8.468;2022-11-20T00:18:53;29.67;;;14.80;;
142;SDS011;63667;49.046;8.468;2022-11-20T00:21:22;31.30;;;14.67;;
142;SDS011;63667;49.046;8.468;2022-11-20T00:23:56;33.30;;;15.47;;
142;SDS011;63667;49.046;8.468;2022-11-20T00:26:25;29.63;;;14.37;;
142;SDS011;63667;49.046;8.468;2022-11-20T00:28:53;28.60;;;13.67;;
142;SDS011;63667;49.046;8.468;2022-11-20T00:31:21;32.90;;;14.20;;
142;SDS011;63667;49.046;8.468;2022-11-20T00:33:49;36.20;;;15.27;;
142;SDS011;63667;49.046;8.468;2022-11-20T00:36:16;27.83;;;13.63;;
142;SDS011;63667;49.046;8.468;2022-11-20T00:38:45;33.27;;;15.20;;
142;SDS011;63667;49.046;8.468;2022-11-20T00:41:13;31.37;;;14.87;;
142;SDS011;63667;49.046;8.468;2022-11-20T00:43:42;30.13;;;14.43;;
142;SDS011;63667;49.046;8.468;2022-11-20T00:46:13;32.30;;;14.37;;
142;SDS011;63667;49.046;8.468;2022-11-20T00:48:44;33.77;;;14.60;;
142;SDS011;63667;49.046;8.468;2022-11-20T00:51:16;33.57;;;15.77;;
142;SDS011;63667;49.046;8.468;2022-11-20T00:53:44;33.67;;;15.83;;
142;SDS011;63667;49.046;8.468;2022-11-20T00:56:13;32.20;;;14.33;;
142;SDS011;63667;49.046;8.468;2022-11-20T00:58:42;31.30;;;14.33;;
142;SDS011;63667;49.046;8.468;2022-11-20T01:01:14;32.93;;;15.10;;
142;SDS011;63667;49.046;8.468;2022-11-20T01:03:50;31.80;;;14.77;;
142;SDS011;63667;49.046;8.468;2022-11-20T01:06:25;32.47;;;15.20;;
142;SDS011;63667;49.046;8.468;2022-11-20T01:08:55;31.33;;;14.57;;
142;SDS011;63667;49.046;8.468;2022-11-20T01:11:27;33.67;;;14.57;;
142;SDS011;63667;49.046;8.468;2022-11-20T01:14:11;28.23;;;14.17;;
142;SDS011;63667;49.046;8.468;2022-11-20T01:16:39;30.43;;;13.97;;
142;SDS011;63667;49.046;8.468;2022-11-20T01:19:09;31.40;;;14.40;;
142;SDS011;63667;49.046;8.468;2022-11-20T01:21:39;29.57;;;14.13;;
142;SDS011;63667;49.046;8.468;2022-11-20T01:24:08;28.87;;;13.87;;
142;SDS011;63667;49.046;8.468;2022-11-20T01:26:38;32.30;;;15.20;;
142;SDS011;63667;49.046;8.468;2022-11-20T01:29:07;30.20;;;14.30;;
142;SDS011;63667;49.046;8.468;2022-11-20T01:31:39;29.67;;;14.23;;
142;SDS011;63667;49.046;8.468;2022-11-20T01:34:07;35.30;;;15.30;;
142;SDS011;63667;49.046;8.468;2022-11-20T01:36:37;33.80;;;14.70;;
142;SDS011;63667;49.046;8.468;2022-11-20T01:39:16;34.33;;;14.87;;
142;SDS011;63667;49.046;8.468;2022-11-20T01:41:44;33.87;;;15.30;;
142;SDS011;63667;49.046;8.468;2022-11-20T01:47:40;32.33;;;14.80;;
142;SDS011;63667;49.046;8.468;2022-11-20T01:50:26;32.13;;;14.00;;
142;SDS011;63667;49.046;8.468;2022-11-20T01:53:00;38.50;;;13.97;;
142;SDS011;63667;49.046;8.468;2022-11-20T01:55:31;34.53;;;15.03;;
142;SDS011;63667;49.046;8.468;2022-11-20T01:58:04;32.73;;;14.50;;
142;SDS011;63667;49.046;8.468;2022-11-20T02:00:37;23.87;;;12.60;;
142;SDS011;63667;49.046;8.468;2022-11-20T02:03:08;25.60;;;13.40;;
142;SDS011;63667;49.046;8.468;2022-11-20T02:05:40;27.23;;;14.17;;
142;SDS011;63667;49.046;8.468;2022-11-20T02:08:18;32.70;;;14.87;;
142;SDS011;63667;49.046;8.468;2022-11-20T02:10:46;31.50;;;13.77;;
142;SDS011;63667;49.046;8.468;2022-11-20T02:13:14;28.00;;;13.13;;
142;SDS011;63667;49.046;8.468;2022-11-20T02:16:00;26.10;;;13.10;;
142;SDS011;63667;49.046;8.468;2022-11-20T02:18:27;24.53;;;12.70;;
142;SDS011;63667;49.046;8.468;2022-11-20T02:20:59;26.93;;;13.27;;
142;SDS011;63667;49.046;8.468;2022-11-20T02:23:39;26.27;;;13.23;;
142;SDS011;63667;49.046;8.468;2022-11-20T02:26:26;27.13;;;13.70;;
142;SDS011;63667;49.046;8.468;2022-11-20T02:28:58;27.27;;;13.80;;
142;SDS011;63667;49.046;8.468;2022-11-20T02:31:26;27.23;;;13.43;;
142;SDS011;63667;49.046;8.468;2022-11-20T02:33:57;32.20;;;13.53;;
142;SDS011;63667;49.046;8.468;2022-11-20T02:36:26;24.60;;;12.57;;
142;SDS011;63667;49.046;8.468;2022-11-20T02:38:54;27.97;;;13.57;;
142;SDS011;63667;49.046;8.468;2022-11-20T02:41:21;30.00;;;13.27;;
142;SDS011;63667;49.046;8.468;2022-11-20T02:43:48;36.50;;;12.70;;
142;SDS011;63667;49.046;8.468;2022-11-20T02:46:15;30.50;;;13.27;;
142;SDS011;63667;49.046;8.468;2022-11-20T02:48:43;25.77;;;12.67;;
142;SDS011;63667;49.046;8.468;2022-11-20T02:51:14;25.97;;;12.47;;
142;SDS011;63667;49.046;8.468;2022-11-20T02:53:41;22.53;;;12.20;;
142;SDS011;63667;49.046;8.468;2022-11-20T02:56:10;26.00;;;12.03;;
142;SDS011;63667;49.046;8.468;2022-11-20T02:58:36;22.10;;;12.23;;
142;SDS011;63667;49.046;8.468;2022-11-20T03:01:04;21.40;;;10.50;;
142;SDS011;63667;49.046;8.468;2022-11-20T03:03:32;22.10;;;12.07;;
142;SDS011;63667;49.046;8.468;2022-11-20T03:05:59;19.80;;;11.17;;
142;SDS011;63667;49.046;8.468;2022-11-20T03:08:27;29.97;;;11.77;;
142;SDS011;63667;49.046;8.468;2022-11-20T03:10:55;23.80;;;12.07;;
142;SDS011;63667;49.046;8.468;2022-11-20T03:13:24;25.63;;;11.83;;
142;SDS011;63667;49.046;8.468;2022-11-20T03:15:52;24.47;;;11.63;;
142;SDS011;63667;49.046;8.468;2022-11-20T03:18:19;19.30;;;10.73;;
142;SDS011;63667;49.046;8.468;2022-11-20T03:20:47;22.03;;;10.60;;
142;SDS011;63667;49.046;8.468;2022-11-20T03:23:14;20.47;;;10.30;;
142;SDS011;63667;49.046;8.468;2022-11-20T03:25:41;17.90;;;9.80;;
142;SDS011;63667;49.046;8.468;2022-11-20T03:28:08;19.07;;;10.67;;
142;SDS011;63667;49.046;8.468;2022-11-20T03:30:36;23.53;;;10.73;;
142;SDS011;63667;49.046;8.468;2022-11-20T03:33:04;20.00;;;10.50;;
142;SDS011;63667;49.046;8.468;2022-11-20T03:35:32;26.40;;;10.77;;
142;SDS011;63667;49.046;8.468;2022-11-20T03:37:59;24.20;;;10.17;;
142;SDS011;63667;49.046;8.468;2022-11-20T03:40:26;18.60;;;9.90;;
142;SDS011;63667;49.046;8.468;2022-11-20T03:42:54;17.57;;;8.80;;
142;SDS011;63667;49.046;8.468;2022-11-20T03:45:22;20.00;;;10.30;;
142;SDS011;63667;49.046;8.468;2022-11-20T03:47:55;15.97;;;9.43;;
142;SDS011;63667;49.046;8.468;2022-11-20T03:50:25;18.30;;;9.40;;
142;SDS011;63667;49.046;8.468;2022-11-20T03:52:53;19.13;;;9.77;;
142;SDS011;63667;49.046;8.468;2022-11-20T03:55:21;16.60;;;9.70;;
142;SDS011;63667;49.046;8.468;2022-11-20T03:57:48;17.50;;;9.73;;
142;SDS011;63667;49.046;8.468;2022-11-20T04:00:15;16.87;;;8.90;;
142;SDS011;63667;49.046;8.468;2022-11-20T04:02:43;15.97;;;9.50;;
142;SDS011;63667;49.046;8.468;2022-11-20T04:05:11;14.90;;;8.27;;
142;SDS011;63667;49.046;8.468;2022-11-20T04:07:45;14.83;;;8.80;;
142;SDS011;63667;49.046;8.468;2022-11-20T04:10:15;25.83;;;10.47;;
142;SDS011;63667;49.046;8.468;2022-11-20T04:12:43;23.00;;;10.47;;
142;SDS011;63667;49.046;8.468;2022-11-20T04:15:10;14.70;;;8.67;;
142;SDS011;63667;49.046;8.468;2022-11-20T04:17:37;18.87;;;9.83;;
142;SDS011;63667;49.046;8.468;2022-11-20T04:20:05;15.60;;;9.17;;
142;SDS011;63667;49.046;8.468;2022-11-20T04:22:36;16.70;;;9.10;;
142;SDS011;63667;49.046;8.468;2022-11-20T04:25:04;19.40;;;8.50;;
142;SDS011;63667;49.046;8.468;2022-11-20T04:27:33;15.40;;;7.97;;
142;SDS011;63667;49.046;8.468;2022-11-20T04:30:00;20.30;;;8.50;;
142;SDS011;63667;49.046;8.468;2022-11-20T04:32:27;18.13;;;9.10;;
142;SDS011;63667;49.046;8.468;2022-11-20T04:34:55;13.73;;;7.90;;
142;SDS011;63667;49.046;8.468;2022-11-20T04:37:23;15.97;;;8.47;;
142;SDS011;63667;49.046;8.468;2022-11-20T04:39:54;12.60;;;8.17;;
142;SDS011;63667;49.046;8.468;2022-11-20T04:42:24;14.30;;;7.77;;
142;SDS011;63667;49.046;8.468;2022-11-20T04:44:54;13.80;;;8.30;;
142;SDS011;63667;49.046;8.468;2022-11-20T04:47:21;15.90;;;8.67;;
142;SDS011;63667;49.046;8.468;2022-11-20T04:49:48;15.37;;;8.50;;
142;SDS011;63667;49.046;8.468;2022-11-20T04:52:16;15.70;;;8.00;;
142;SDS011;63667;49.046;8.468;2022-11-20T04:54:43;15.40;;;7.97;;
142;SDS011;63667;49.046;8.468;2022-11-20T04:57:12;14.20;;;8.07;;
142;SDS011;63667;49.046;8.468;2022-11-20T04:59:40;14.20;;;8.60;;
142;SDS011;63667;49.046;8.468;2022-11-20T05:02:08;13.70;;;8.13;;
142;SDS011;63667;49.046;8.468;2022-11-20T05:04:35;14.83;;;8.67;;
142;SDS011;63667;49.046;8.468;2022-11-20T05:07:03;15.27;;;7.83;;
142;SDS011;63667;49.046;8.468;2022-11-20T05:09:31;16.73;;;8.17;;
142;SDS011;63667;49.046;8.468;2022-11-20T05:11:58;18.00;;;8.47;;
142;SDS011;63667;49.046;8.468;2022-11-20T05:14:25;16.27;;;8.53;;
142;SDS011;63667;49.046;8.468;2022-11-20T05:16:53;20.23;;;8.43;;
142;SDS011;63667;49.046;8.468;2022-11-20T05:19:21;12.53;;;7.97;;
142;SDS011;63667;49.046;8.468;2022-11-20T05:21:50;13.80;;;8.77;;
142;SDS011;63667;49.046;8.468;2022-11-20T05:24:17;15.70;;;8.13;;
142;SDS011;63667;49.046;8.468;2022-11-20T05:26:45;13.57;;;8.10;;
142;SDS011;63667;49.046;8.468;2022-11-20T05:29:12;13.83;;;8.00;;
142;SDS011;63667;49.046;8.468;2022-11-20T05:31:40;13.93;;;8.10;;
142;SDS011;63667;49.046;8.468;2022-11-20T05:34:07;18.23;;;8.63;;
142;SDS011;63667;49.046;8.468;2022-11-20T05:36:35;13.73;;;7.67;;
142;SDS011;63667;49.046;8.468;2022-11-20T05:39:03;14.73;;;7.47;;
142;SDS011;63667;49.046;8.468;2022-11-20T05:41:32;11.43;;;7.20;;
142;SDS011;63667;49.046;8.468;2022-11-20T05:43:59;15.27;;;7.57;;
142;SDS011;63667;49.046;8.468;2022-11-20T05:46:27;14.43;;;7.20;;
142;SDS011;63667;49.046;8.468;2022-11-20T05:48:56;14.70;;;7.70;;
142;SDS011;63667;49.046;8.468;2022-11-20T05:51:23;18.70;;;7.50;;
142;SDS011;63667;49.046;8.468;2022-11-20T05:53:50;13.43;;;7.67;;
142;SDS011;63667;49.046;8.468;2022-11-20T05:56:18;13.97;;;7.07;;
142;SDS011;63667;49.046;8.468;2022-11-20T05:58:47;14.13;;;7.53;;
142;SDS011;63667;49.046;8.468;2022-11-20T06:01:17;12.70;;;7.40;;
142;SDS011;63667;49.046;8.468;2022-11-20T06:03:50;15.43;;;7.90;;
142;SDS011;63667;49.046;8.468;2022-11-20T06:06:19;10.13;;;6.53;;
142;SDS011;63667;49.046;8.468;2022-11-20T06:08:47;13.27;;;7.37;;
142;SDS011;63667;49.046;8.468;2022-11-20T06:11:14;14.40;;;6.90;;
142;SDS011;63667;49.046;8.468;2022-11-20T06:13:43;11.67;;;6.53;;
142;SDS011;63667;49.046;8.468;2022-11-20T06:16:10;12.13;;;7.00;;
142;SDS011;63667;49.046;8.468;2022-11-20T06:18:39;12.03;;;7.00;;
142;SDS011;63667;49.046;8.468;2022-11-20T06:21:10;10.33;;;6.13;;
142;SDS011;63667;49.046;8.468;2022-11-20T06:23:57;10.90;;;6.80;;
142;SDS011;63667;49.046;8.468;2022-11-20T06:26:25;11.50;;;6.40;;
142;SDS011;63667;49.046;8.468;2022-11-20T06:28:53;7.93;;;5.63;;
142;SDS011;63667;49.046;8.468;2022-11-20T06:31:24;9.43;;;5.40;;
142;SDS011;63667;49.046;8.468;2022-11-20T06:33:57;8.50;;;5.47;;
142;SDS011;63667;49.046;8.468;2022-11-20T06:36:24;11.90;;;6.20;;
142;SDS011;63667;49.046;8.468;2022-11-20T06:38:52;11.57;;;6.40;;
142;SDS011;63667;49.046;8.468;2022-11-20T06:41:20;13.13;;;6.40;;
142;SDS011;63667;49.046;8.468;2022-11-20T06:43:48;9.40;;;6.07;;
142;SDS011;63667;49.046;8.468;2022-11-20T06:46:15;10.50;;;5.90;;
142;SDS011;63667;49.046;8.468;2022-11-20T06:48:45;10.87;;;5.87;;
142;SDS011;63667;49.046;8.468;2022-11-20T06:51:13;8.80;;;5.90;;
142;SDS011;63667;49.046;8.468;2022-11-20T06:53:40;13.07;;;6.83;;
142;SDS011;63667;49.046;8.468;2022-11-20T06:56:07;11.23;;;6.23;;
142;SDS011;63667;49.046;8.468;2022-11-20T06:58:34;11.03;;;6.13;;
142;SDS011;63667;49.046;8.468;2022-11-20T07:01:04;11.53;;;6.50;;
142;SDS011;63667;49.046;8.468;2022-11-20T07:03:33;11.10;;;6.23;;
142;SDS011;63667;49.046;8.468;2022-11-20T07:06:00;12.20;;;6.00;;
142;SDS011;63667;49.046;8.468;2022-11-20T07:08:28;9.40;;;5.87;;
142;SDS011;63667;49.046;8.468;2022-11-20T07:10:59;11.20;;;5.87;;
142;SDS011;63667;49.046;8.468;2022-11-20T07:13:26;9.80;;;6.13;;
142;SDS011;63667;49.046;8.468;2022-11-20T07:15:53;11.00;;;6.10;;
142;SDS011;63667;49.046;8.468;2022-11-20T07:18:25;14.33;;;6.00;;
142;SDS011;63667;49.046;8.468;2022-11-20T07:20:52;7.40;;;5.20;;
142;SDS011;63667;49.046;8.468;2022-11-20T07:23:18;7.57;;;5.20;;
142;SDS011;63667;49.046;8.468;2022-11-20T07:25:44;8.60;;;5.47;;
142;SDS011;63667;49.046;8.468;2022-11-20T07:28:12;15.53;;;6.33;;
142;SDS011;63667;49.046;8.468;2022-11-20T07:30:39;5.97;;;4.93;;
142;SDS011;63667;49.046;8.468;2022-11-20T07:33:07;10.30;;;6.23;;
142;SDS011;63667;49.046;8.468;2022-11-20T07:35:33;16.70;;;5.90;;
142;SDS011;63667;49.046;8.468;2022-11-20T07:38:01;7.73;;;5.70;;
142;SDS011;63667;49.046;8.468;2022-11-20T07:40:27;8.80;;;5.87;;
142;SDS011;63667;49.046;8.468;2022-11-20T07:42:55;10.53;;;5.97;;
142;SDS011;63667;49.046;8.468;2022-11-20T07:45:23;9.17;;;5.90;;
142;SDS011;63667;49.046;8.468;2022-11-20T07:47:50;10.00;;;6.30;;
142;SDS011;63667;49.046;8.468;2022-11-20T07:50:17;13.23;;;6.90;;
142;SDS011;63667;49.046;8.468;2022-11-20T07:52:43;12.00;;;6.23;;
142;SDS011;63667;49.046;8.468;2022-11-20T07:55:10;14.40;;;6.70;;
142;SDS011;63667;49.046;8.468;2022-11-20T07:57:37;12.87;;;6.07;;
142;SDS011;63667;49.046;8.468;2022-11-20T08:00:04;9.50;;;5.87;;
142;SDS011;63667;49.046;8.468;2022-11-20T08:02:32;11.43;;;6.40;;
142;SDS011;63667;49.046;8.468;2022-11-20T08:04:59;13.10;;;6.50;;
142;SDS011;63667;49.046;8.468;2022-11-20T08:07:26;11.80;;;7.00;;
142;SDS011;63667;49.046;8.468;2022-11-20T08:09:52;15.33;;;7.60;;
142;SDS011;63667;49.046;8.468;2022-11-20T08:12:19;15.80;;;7.90;;
142;SDS011;63667;49.046;8.468;2022-11-20T08:15:05;21.67;;;7.60;;
142;SDS011;63667;49.046;8.468;2022-11-20T08:17:35;14.07;;;7.33;;
142;SDS011;63667;49.046;8.468;2022-11-20T08:20:02;15.00;;;7.90;;
142;SDS011;63667;49.046;8.468;2022-11-20T08:22:31;13.93;;;7.50;;
142;SDS011;63667;49.046;8.468;2022-11-20T08:24:58;14.03;;;6.87;;
142;SDS011;63667;49.046;8.468;2022-11-20T08:27:25;12.10;;;6.80;;
142;SDS011;63667;49.046;8.468;2022-11-20T08:29:51;20.83;;;7.33;;
142;SDS011;63667;49.046;8.468;2022-11-20T08:32:18;14.10;;;7.27;;
142;SDS011;63667;49.046;8.468;2022-11-20T08:34:45;17.60;;;8.00;;
142;SDS011;63667;49.046;8.468;2022-11-20T08:37:11;16.97;;;6.97;;
142;SDS011;63667;49.046;8.468;2022-11-20T08:39:39;18.63;;;7.37;;
142;SDS011;63667;49.046;8.468;2022-11-20T08:42:08;10.33;;;6.80;;
142;SDS011;63667;49.046;8.468;2022-11-20T08:44:34;10.93;;;6.90;;
142;SDS011;63667;49.046;8.468;2022-11-20T08:47:00;13.40;;;6.47;;
142;SDS011;63667;49.046;8.468;2022-11-20T08:49:27;14.53;;;7.23;;
142;SDS011;63667;49.046;8.468;2022-11-20T08:51:53;11.90;;;6.47;;
142;SDS011;63667;49.046;8.468;2022-11-20T08:54:21;11.13;;;6.53;;
142;SDS011;63667;49.046;8.468;2022-11-20T08:56:48;15.30;;;6.87;;
142;SDS011;63667;49.046;8.468;2022-11-20T08:59:14;11.33;;;7.03;;
142;SDS011;63667;49.046;8.468;2022-11-20T09:01:40;14.93;;;6.80;;
142;SDS011;63667;49.046;8.468;2022-11-20T09:04:06;13.23;;;6.80;;
142;SDS011;63667;49.046;8.468;2022-11-20T09:06:32;10.67;;;6.90;;
142;SDS011;63667;49.046;8.468;2022-11-20T09:09:00;12.80;;;6.67;;
142;SDS011;63667;49.046;8.468;2022-11-20T09:11:27;11.70;;;7.30;;
142;SDS011;63667;49.046;8.468;2022-11-20T09:13:54;11.53;;;7.30;;
142;SDS011;63667;49.046;8.468;2022-11-20T09:16:26;12.47;;;7.07;;
142;SDS011;63667;49.046;8.468;2022-11-20T09:18:55;13.37;;;6.97;;
142;SDS011;63667;49.046;8.468;2022-11-20T09:21:23;16.37;;;7.57;;
142;SDS011;63667;49.046;8.468;2022-11-20T09:23:51;10.13;;;6.37;;
142;SDS011;63667;49.046;8.468;2022-11-20T09:26:19;16.33;;;7.43;;
142;SDS011;63667;49.046;8.468;2022-11-20T09:28:47;15.97;;;7.97;;
142;SDS011;63667;49.046;8.468;2022-11-20T09:31:24;12.87;;;7.60;;
142;SDS011;63667;49.046;8.468;2022-11-20T09:33:52;14.57;;;7.13;;
142;SDS011;63667;49.046;8.468;2022-11-20T09:36:20;12.63;;;8.10;;
142;SDS011;63667;49.046;8.468;2022-11-20T09:38:48;16.40;;;7.17;;
142;SDS011;63667;49.046;8.468;2022-11-20T09:54:53;10.50;;;7.03;;
142;SDS011;63667;49.046;8.468;2022-11-20T09:57:23;15.00;;;7.90;;
142;SDS011;63667;49.046;8.468;2022-11-20T09:59:56;18.40;;;7.97;;
142;SDS011;63667;49.046;8.468;2022-11-20T10:02:41;13.80;;;6.40;;
142;SDS011;63667;49.046;8.468;2022-11-20T10:05:56;13.80;;;7.60;;
142;SDS011;63667;49.046;8.468;2022-11-20T10:08:47;18.50;;;8.57;;
142;SDS011;63667;49.046;8.468;2022-11-20T10:17:23;17.50;;;8.97;;
142;SDS011;63667;49.046;8.468;2022-11-20T10:23:21;12.90;;;7.73;;
142;SDS011;63667;49.046;8.468;2022-11-20T10:29:17;16.13;;;9.00;;
142;SDS011;63667;49.046;8.468;2022-11-20T10:31:50;15.87;;;8.60;;
142;SDS011;63667;49.046;8.468;2022-11-20T10:34:45;14.20;;;8.57;;
142;SDS011;63667;49.046;8.468;2022-11-20T10:37:31;16.60;;;9.20;;
142;SDS011;63667;49.046;8.468;2022-11-20T10:42:59;21.27;;;11.70;;
142;SDS011;63667;49.046;8.468;2022-11-20T10:46:18;18.50;;;9.80;;
142;SDS011;63667;49.046;8.468;2022-11-20T10:48:40;14.30;;;8.60;;
142;SDS011;63667;49.046;8.468;2022-11-20T10:56:48;11.97;;;7.40;;
142;SDS011;63667;49.046;8.468;2022-11-20T11:02:22;13.50;;;7.20;;
142;SDS011;63667;49.046;8.468;2022-11-20T11:04:51;13.03;;;7.20;;
142;SDS011;63667;49.046;8.468;2022-11-20T11:07:24;10.70;;;6.70;;
142;SDS011;63667;49.046;8.468;2022-11-20T11:10:05;11.73;;;6.63;;
142;SDS011;63667;49.046;8.468;2022-11-20T11:12:48;14.77;;;8.10;;
142;SDS011;63667;49.046;8.468;2022-11-20T11:15:24;13.20;;;6.90;;
142;SDS011;63667;49.046;8.468;2022-11-20T11:17:52;11.27;;;6.27;;
142;SDS011;63667;49.046;8.468;2022-11-20T11:20:20;11.87;;;7.40;;
142;SDS011;63667;49.046;8.468;2022-11-20T11:22:52;12.80;;;6.70;;
142;SDS011;63667;49.046;8.468;2022-11-20T11:25:24;11.77;;;6.63;;
142;SDS011;63667;49.046;8.468;2022-11-20T11:27:52;11.43;;;6.10;;
142;SDS011;63667;49.046;8.468;2022-11-20T11:30:22;12.90;;;6.67;;
142;SDS011;63667;49.046;8.468;2022-11-20T11:32:50;16.03;;;6.03;;
142;SDS011;63667;49.046;8.468;2022-11-20T11:35:28;14.23;;;5.50;;
142;SDS011;63667;49.046;8.468;2022-11-20T11:38:02;11.60;;;4.70;;
142;SDS011;63667;49.046;8.468;2022-11-20T11:40:33;11.07;;;4.53;;
142;SDS011;63667;49.046;8.468;2022-11-20T11:43:06;12.00;;;5.10;;
142;SDS011;63667;49.046;8.468;2022-11-20T11:46:02;8.23;;;5.00;;
142;SDS011;63667;49.046;8.468;2022-11-20T11:48:55;17.43;;;4.60;;
142;SDS011;63667;49.046;8.468;2022-11-20T11:51:46;10.13;;;5.20;;
142;SDS011;63667;49.046;8.468;2022-11-20T11:54:30;5.97;;;4.27;;
142;SDS011;63667;49.046;8.468;2022-11-20T12:13:01;7.93;;;4.37;;
142;SDS011;63667;49.046;8.468;2022-11-20T12:15:34;9.97;;;4.67;;
142;SDS011;63667;49.046;8.468;2022-11-20T12:18:28;6.80;;;3.97;;
142;SDS011;63667;49.046;8.468;2022-11-20T12:26:47;8.63;;;4.53;;
142;SDS011;63667;49.046;8.468;2022-11-20T12:29:44;9.50;;;4.67;;
142;SDS011;63667;49.046;8.468;2022-11-20T12:50:23;8.77;;;3.23;;
142;SDS011;63667;49.046;8.468;2022-11-20T12:53:04;4.87;;;3.73;;
142;SDS011;63667;49.046;8.468;2022-11-20T13:01:13;7.90;;;2.90;;
142;SDS011;63667;49.046;8.468;2022-11-20T13:07:00;6.20;;;2.90;;
142;SDS011;63667;49.046;8.468;2022-11-20T13:09:32;3.53;;;2.20;;
142;SDS011;63667;49.046;8.468;2022-11-20T13:20:03;6.33;;;2.27;;
142;SDS011;63667;49.046;8.468;2022-11-20T13:22:43;5.80;;;2.37;;
142;SDS011;63667;49.046;8.468;2022-11-20T13:25:21;7.20;;;2.80;;
142;SDS011;63667;49.046;8.468;2022-11-20T13:27:52;4.80;;;3.10;;
142;SDS011;63667;49.046;8.468;2022-11-20T13:30:27;3.10;;;2.77;;
142;SDS011;63667;49.046;8.468;2022-11-20T13:32:57;12.13;;;3.13;;
142;SDS011;63667;49.046;8.468;2022-11-20T13:35:35;10.07;;;2.90;;
142;SDS011;63667;49.046;8.468;2022-11-20T13:38:12;3.43;;;2.27;;
142;SDS011;63667;49.046;8.468;2022-11-20T13:40:51;8.70;;;2.57;;
142;SDS011;63667;49.046;8.468;2022-11-20T13:43:27;3.33;;;2.60;;
142;SDS011;63667;49.046;8.468;2022-11-20T13:46:37;4.83;;;2.67;;
142;SDS011;63667;49.046;8.468;2022-11-20T13:57:51;3.50;;;2.27;;
142;SDS011;63667;49.046;8.468;2022-11-20T14:00:21;6.73;;;2.90;;
142;SDS011;63667;49.046;8.468;2022-11-20T14:03:32;3.13;;;2.40;;
142;SDS011;63667;49.046;8.468;2022-11-20T14:06:43;2.43;;;2.10;;
142;SDS011;63667;49.046;8.468;2022-11-20T14:09:54;4.07;;;2.20;;
142;SDS011;63667;49.046;8.468;2022-11-20T14:12:23;3.83;;;2.20;;
142;SDS011;63667;49.046;8.468;2022-11-20T14:15:33;5.93;;;2.57;;
142;SDS011;63667;49.046;8.468;2022-11-20T14:18:10;5.57;;;3.07;;
142;SDS011;63667;49.046;8.468;2022-11-20T14:20:38;5.67;;;2.63;;
142;SDS011;63667;49.046;8.468;2022-11-20T14:23:52;3.10;;;2.53;;
142;SDS011;63667;49.046;8.468;2022-11-20T14:26:45;3.77;;;3.07;;
142;SDS011;63667;49.046;8.468;2022-11-20T14:29:36;6.73;;;3.10;;
142;SDS011;63667;49.046;8.468;2022-11-20T14:32:03;6.70;;;2.37;;
142;SDS011;63667;49.046;8.468;2022-11-20T14:34:54;5.67;;;2.83;;
142;SDS011;63667;49.046;8.468;2022-11-20T14:38:04;6.33;;;3.10;;
142;SDS011;63667;49.046;8.468;2022-11-20T14:40:37;4.63;;;2.20;;
142;SDS011;63667;49.046;8.468;2022-11-20T14:43:56;9.73;;;2.63;;
142;SDS011;63667;49.046;8.468;2022-11-20T14:46:43;3.73;;;2.70;;
142;SDS011;63667;49.046;8.468;2022-11-20T14:49:54;5.80;;;2.63;;
142;SDS011;63667;49.046;8.468;2022-11-20T14:52:23;6.03;;;2.57;;
142;SDS011;63667;49.046;8.468;2022-11-20T14:55:13;5.70;;;2.97;;
142;SDS011;63667;49.046;8.468;2022-11-20T14:57:54;5.77;;;2.40;;
142;SDS011;63667;49.046;8.468;2022-11-20T15:00:22;3.10;;;2.40;;
142;SDS011;63667;49.046;8.468;2022-11-20T15:02:51;3.37;;;2.60;;
142;SDS011;63667;49.046;8.468;2022-11-20T15:05:20;4.57;;;2.70;;
142;SDS011;63667;49.046;8.468;2022-11-20T15:07:51;3.47;;;2.50;;
142;SDS011;63667;49.046;8.468;2022-11-20T15:10:32;4.60;;;2.80;;
142;SDS011;63667;49.046;8.468;2022-11-20T15:13:01;4.30;;;2.47;;
142;SDS011;63667;49.046;8.468;2022-11-20T15:15:50;5.03;;;2.33;;
142;SDS011;63667;49.046;8.468;2022-11-20T15:18:21;5.73;;;2.70;;
142;SDS011;63667;49.046;8.468;2022-11-20T15:20:54;3.47;;;2.77;;
142;SDS011;63667;49.046;8.468;2022-11-20T15:23:23;4.80;;;3.20;;
142;SDS011;63667;49.046;8.468;2022-11-20T15:25:52;3.17;;;2.70;;
142;SDS011;63667;49.046;8.468;2022-11-20T15:28:21;4.37;;;2.40;;
142;SDS011;63667;49.046;8.468;2022-11-20T15:30:48;3.57;;;2.70;;
142;SDS011;63667;49.046;8.468;2022-11-20T15:33:16;4.27;;;2.80;;
142;SDS011;63667;49.046;8.468;2022-11-20T15:35:44;4.93;;;2.83;;
142;SDS011;63667;49.046;8.468;2022-11-20T15:38:11;5.03;;;3.27;;
142;SDS011;63667;49.046;8.468;2022-11-20T15:40:39;4.43;;;2.93;;
142;SDS011;63667;49.046;8.468;2022-11-20T15:43:07;10.83;;;3.47;;
142;SDS011;63667;49.046;8.468;2022-11-20T15:45:38;6.83;;;3.20;;
142;SDS011;63667;49.046;8.468;2022-11-20T15:48:22;3.50;;;3.10;;
142;SDS011;63667;49.046;8.468;2022-11-20T15:51:01;5.90;;;3.10;;
142;SDS011;63667;49.046;8.468;2022-11-20T15:53:36;6.30;;;3.60;;
142;SDS011;63667;49.046;8.468;2022-11-20T15:56:05;23.00;;;11.30;;
142;SDS011;63667;49.046;8.468;2022-11-20T15:58:38;4.50;;;3.43;;
142;SDS011;63667;49.046;8.468;2022-11-20T16:01:05;12.03;;;3.83;;
142;SDS011;63667;49.046;8.468;2022-11-20T16:03:40;7.20;;;4.17;;
142;SDS011;63667;49.046;8.468;2022-11-20T16:06:08;14.10;;;3.67;;
142;SDS011;63667;49.046;8.468;2022-11-20T16:08:34;4.23;;;3.20;;
142;SDS011;63667;49.046;8.468;2022-11-20T16:11:02;8.97;;;3.37;;
142;SDS011;63667;49.046;8.468;2022-11-20T16:13:35;13.83;;;4.00;;
142;SDS011;63667;49.046;8.468;2022-11-20T16:16:21;3.63;;;2.80;;
142;SDS011;63667;49.046;8.468;2022-11-20T16:18:51;4.10;;;2.83;;
142;SDS011;63667;49.046;8.468;2022-11-20T16:21:18;3.73;;;3.13;;
142;SDS011;63667;49.046;8.468;2022-11-20T16:23:49;6.10;;;3.03;;
142;SDS011;63667;49.046;8.468;2022-11-20T16:26:17;10.00;;;3.43;;
142;SDS011;63667;49.046;8.468;2022-11-20T16:28:46;10.23;;;3.03;;
142;SDS011;63667;49.046;8.468;2022-11-20T16:31:14;4.60;;;3.10;;
142;SDS011;63667;49.046;8.468;2022-11-20T16:33:53;6.33;;;3.17;;
142;SDS011;63667;49.046;8.468;2022-11-20T16:36:22;3.90;;;3.40;;
142;SDS011;63667;49.046;8.468;2022-11-20T16:38:54;4.60;;;3.10;;
142;SDS011;63667;49.046;8.468;2022-11-20T16:41:25;3.50;;;2.97;;
142;SDS011;63667;49.046;8.468;2022-11-20T16:43:57;5.00;;;3.17;;
142;SDS011;63667;49.046;8.468;2022-11-20T16:46:27;4.73;;;3.20;;
142;SDS011;63667;49.046;8.468;2022-11-20T16:48:57;5.43;;;3.70;;
142;SDS011;63667;49.046;8.468;2022-11-20T16:51:29;5.33;;;3.10;;
142;SDS011;63667;49.046;8.468;2022-11-20T16:54:01;4.60;;;3.30;;
142;SDS011;63667;49.046;8.468;2022-11-20T16:56:30;5.90;;;3.50;;
142;SDS011;63667;49.046;8.468;2022-11-20T16:58:58;6.20;;;3.10;;
142;SDS011;63667;49.046;8.468;2022-11-20T17:01:26;6.27;;;3.50;;
142;SDS011;63667;49.046;8.468;2022-11-20T17:03:57;7.13;;;4.00;;
142;SDS011;63667;49.046;8.468;2022-11-20T17:06:26;12.13;;;4.53;;
142;SDS011;63667;49.046;8.468;2022-11-20T17:08:56;4.57;;;3.90;;
142;SDS011;63667;49.046;8.468;2022-11-20T17:11:24;5.37;;;4.13;;
142;SDS011;63667;49.046;8.468;2022-11-20T17:13:55;8.10;;;3.60;;
142;SDS011;63667;49.046;8.468;2022-11-20T17:16:25;3.47;;;3.20;;
142;SDS011;63667;49.046;8.468;2022-11-20T17:18:55;6.47;;;3.53;;